Conover, Ohio
Current Conditions -  °F | °C
As of 8:56 PM on Saturday 22 Nov 2014 (Local Time) from KDAY Reporting Station
Overcast Overcast  
Wind Chill: 55°   Ceiling: 5500
Heat Index: 55°   Visibility: 10mi
Dew Point: 36°   Wind: 15mph
Humidity: 49%   Direction: 190°S
Pressure: 30.05"   Gusts: 23mph
Location:  40.14°N, 84.05°W
Report Text: KDAY 230156Z 19013G20KT 10SM BKN055 OVC100 13/02 A3005 RMK AO2 SLP181 T01280022
Loading
Personal Weather Stations






























Interactive Weather Map New forecast layout! Learn more

10-Day Weather Forecast

Advertisements
Track Severe Weather on mobile